Time;durP1;ratioP1;P1;durP2;ratioP2;P2;SDS_P1;SDS_P2;PMS_P1;PMS_P2;Temp;Humidity;BMP_temperature;BMP_pressure;BME280_temperature;BME280_humidity;BME280_pressure;Samples;Min_cycle;Max_cycle;Signal;HPM_P1;HPM_P2
2022/03/12 10:45:43;;;;;;;4.03;2.50;;;16.00;62.40;;;;;;6128089;22;1295895;-68
2022/03/12 10:48:12;;;;;;;1.60;1.60;;;16.00;63.50;;;;;;6126301;23;21170;-68
2022/03/12 10:50:41;;;;;;;2.77;2.37;;;16.00;63.50;;;;;;6126722;23;20413;-68
2022/03/12 10:53:09;;;;;;;4.17;2.40;;;16.10;63.10;;;;;;6127127;23;20401;-68
2022/03/12 10:55:39;;;;;;;2.50;1.90;;;16.00;63.60;;;;;;6127094;23;20401;-68
2022/03/12 10:58:08;;;;;;;4.00;2.83;;;16.00;63.20;;;;;;6127128;23;20429;-68
2022/03/12 11:00:38;;;;;;;4.03;2.50;;;16.10;65.10;;;;;;6127215;23;20400;-68
2022/03/12 11:03:10;;;;;;;3.20;2.50;;;16.30;64.70;;;;;;6127364;23;20409;-68
2022/03/12 11:05:41;;;;;;;6.33;2.63;;;16.50;65.30;;;;;;6127079;23;20440;-68
2022/03/12 11:08:15;;;;;;;4.80;2.03;;;16.50;64.00;;;;;;6127268;23;20400;-68
2022/03/12 11:10:51;;;;;;;4.70;2.77;;;16.30;63.60;;;;;;6126886;23;20407;-68
2022/03/12 11:13:27;;;;;;;6.90;2.47;;;16.30;65.80;;;;;;6127287;23;20442;-68
2022/03/12 11:16:19;;;;;;;2.00;1.63;;;16.60;65.70;;;;;;6127617;23;20427;-68
2022/03/12 11:18:58;;;;;;;2.50;1.80;;;16.80;64.70;;;;;;6127366;23;20478;-68
2022/03/12 11:21:27;;;;;;;5.23;2.57;;;17.00;64.70;;;;;;6127095;23;20408;-68
2022/03/12 11:23:55;;;;;;;6.07;2.40;;;17.50;65.50;;;;;;6127301;23;20451;-68
2022/03/12 11:26:23;;;;;;;4.30;2.20;;;17.80;64.90;;;;;;6126769;23;20420;-68
2022/03/12 11:28:57;;;;;;;3.17;2.40;;;18.10;64.80;;;;;;6126385;23;20484;-68
2022/03/12 11:31:48;;;;;;;2.70;2.03;;;17.90;65.00;;;;;;6120544;23;20410;-68
2022/03/12 11:34:22;;;;;;;3.40;2.20;;;17.80;65.60;;;;;;6120530;23;20408;-68
2022/03/12 11:37:13;;;;;;;3.73;2.60;;;17.90;65.20;;;;;;6120728;23;20777;-68
2022/03/12 11:39:46;;;;;;;3.30;1.93;;;18.10;64.70;;;;;;6120694;23;21155;-68
2022/03/12 11:42:15;;;;;;;5.70;3.00;;;18.40;64.90;;;;;;6121236;23;20406;-68
2022/03/12 11:44:44;;;;;;;2.00;1.73;;;18.60;64.90;;;;;;6120808;23;20717;-69
2022/03/12 11:47:12;;;;;;;4.10;2.43;;;18.80;64.70;;;;;;6120135;23;20950;-68
2022/03/12 11:49:41;;;;;;;4.03;2.50;;;18.60;64.90;;;;;;6118943;23;20421;-68
2022/03/12 11:52:09;;;;;;;3.27;2.07;;;18.50;66.00;;;;;;6119414;23;20907;-68
2022/03/12 11:54:43;;;;;;;4.43;2.77;;;18.80;65.50;;;;;;6119780;23;20421;-68
2022/03/12 11:57:13;;;;;;;4.33;2.70;;;19.00;65.20;;;;;;6120092;23;20409;-68
2022/03/12 11:59:41;;;;;;;1.90;1.80;;;19.30;64.30;;;;;;6120237;23;20927;-69
2022/03/12 12:02:26;;;;;;;3.03;2.00;;;19.60;64.00;;;;;;6120613;23;20456;-68
2022/03/12 12:04:56;;;;;;;3.23;2.00;;;19.90;64.10;;;;;;6120488;23;20489;-69
2022/03/12 12:07:25;;;;;;;2.53;1.97;;;20.20;63.50;;;;;;6120787;23;20508;-68
2022/03/12 12:09:54;;;;;;;2.80;2.50;;;20.40;62.40;;;;;;6120546;23;20871;-68
2022/03/12 12:12:24;;;;;;;7.40;2.17;;;20.30;62.60;;;;;;6120181;23;20434;-68
2022/03/12 12:14:56;;;;;;;3.60;2.17;;;20.30;63.50;;;;;;6120278;23;20459;-68
2022/03/12 12:17:23;;;;;;;2.93;1.90;;;20.10;63.00;;;;;;6120210;23;20433;-69
2022/03/12 12:19:50;;;;;;;4.40;2.13;;;20.20;63.30;;;;;;6120229;23;20911;-68
2022/03/12 12:22:21;;;;;;;2.90;2.43;;;20.20;62.90;;;;;;6070614;23;20965;-69
2022/03/12 12:24:52;;;;;;;2.40;2.00;;;20.40;62.50;;;;;;6120350;23;20406;-69
2022/03/12 12:27:23;;;;;;;3.63;2.43;;;20.00;62.70;;;;;;6120141;23;20405;-69
2022/03/12 12:29:51;;;;;;;3.93;2.30;;;20.20;62.70;;;;;;6120397;23;20421;-70
2022/03/12 12:32:20;;;;;;;3.57;2.30;;;20.40;61.60;;;;;;6119945;23;20414;-69
2022/03/12 12:35:15;;;;;;;2.87;2.10;;;20.50;61.90;;;;;;6119880;23;20426;-68
2022/03/12 12:37:47;;;;;;;2.87;2.20;;;20.60;61.60;;;;;;6120181;23;20436;-70
2022/03/12 12:40:20;;;;;;;5.53;2.50;;;20.40;60.80;;;;;;6120331;23;20406;-69
2022/03/12 12:42:49;;;;;;;3.67;2.47;;;20.30;61.60;;;;;;6120492;23;20408;-71
2022/03/12 12:45:18;;;;;;;5.13;2.53;;;20.70;61.80;;;;;;6120909;23;20412;-69
2022/03/12 12:47:45;;;;;;;5.40;2.93;;;20.80;60.80;;;;;;6121125;23;20432;-69
2022/03/12 12:50:21;;;;;;;2.90;2.13;;;20.90;60.30;;;;;;6121183;23;20945;-69
2022/03/12 12:53:13;;;;;;;1.87;1.60;;;21.00;60.60;;;;;;6121507;23;20405;-69
2022/03/12 12:55:42;;;;;;;5.43;2.47;;;21.00;61.00;;;;;;6121121;23;20429;-69
2022/03/12 12:58:10;;;;;;;3.60;1.90;;;21.00;59.80;;;;;;6120951;23;20406;-70
2022/03/12 13:00:39;;;;;;;2.43;1.90;;;21.10;60.30;;;;;;6121615;23;20436;-69
2022/03/12 13:03:14;;;;;;;2.77;2.00;;;21.20;60.60;;;;;;6121612;23;20428;-69
2022/03/12 13:05:56;;;;;;;2.70;2.43;;;21.20;59.10;;;;;;6121012;23;20412;-69
2022/03/12 13:08:26;;;;;;;10.27;2.67;;;21.20;59.40;;;;;;6120827;23;20880;-69
2022/03/12 13:10:56;;;;;;;2.47;2.27;;;21.30;59.90;;;;;;6121183;23;20792;-69
2022/03/12 13:13:26;;;;;;;3.33;2.40;;;21.50;58.60;;;;;;6121156;23;20402;-69
2022/03/12 13:15:56;;;;;;;3.43;1.83;;;21.90;59.10;;;;;;6121199;23;20421;-69
2022/03/12 13:18:38;;;;;;;3.90;2.40;;;21.90;59.10;;;;;;6121096;23;20430;-69
2022/03/12 13:21:07;;;;;;;3.17;2.30;;;22.30;58.00;;;;;;6120930;23;20401;-69
2022/03/12 13:23:47;;;;;;;4.53;2.53;;;22.50;58.30;;;;;;6121179;23;20717;-69
2022/03/12 13:26:18;;;;;;;4.37;2.90;;;22.20;57.90;;;;;;6121179;23;20403;-69
2022/03/12 13:28:48;;;;;;;4.30;2.40;;;22.10;58.00;;;;;;6121108;23;20462;-69
2022/03/12 13:31:23;;;;;;;3.37;2.53;;;22.00;57.90;;;;;;6121318;23;20417;-69
2022/03/12 13:34:00;;;;;;;3.47;2.60;;;21.80;57.00;;;;;;6121138;23;20405;-69
2022/03/12 13:36:29;;;;;;;5.47;2.93;;;22.10;58.20;;;;;;6121174;23;20410;-69
2022/03/12 13:38:59;;;;;;;6.43;3.10;;;22.30;57.80;;;;;;6120770;23;20430;-69
2022/03/12 13:41:27;;;;;;;3.60;2.10;;;22.10;56.60;;;;;;6120813;23;20417;-69
2022/03/12 13:43:56;;;;;;;4.77;2.73;;;22.10;57.50;;;;;;6121312;23;20398;-69
2022/03/12 13:46:25;;;;;;;3.80;1.93;;;22.10;57.40;;;;;;6121121;23;20436;-69
2022/03/12 13:49:04;;;;;;;3.83;2.50;;;22.10;57.90;;;;;;6120768;23;20425;-69
2022/03/12 13:51:33;;;;;;;5.70;3.13;;;22.20;57.80;;;;;;6121326;23;20424;-70
2022/03/12 13:54:05;;;;;;;2.40;2.17;;;22.10;57.50;;;;;;6120882;23;20433;-68
2022/03/12 13:56:33;;;;;;;4.00;2.30;;;22.10;57.80;;;;;;6120928;23;20410;-68
2022/03/12 13:59:07;;;;;;;5.93;3.10;;;22.00;57.10;;;;;;6120943;23;20820;-68
2022/03/12 14:01:36;;;;;;;3.83;2.60;;;22.00;58.10;;;;;;6095984;23;20473;-68
2022/03/12 14:04:04;;;;;;;4.47;3.00;;;22.20;57.70;;;;;;6120612;23;20413;-68
2022/03/12 14:06:33;;;;;;;3.67;2.53;;;22.20;57.70;;;;;;6120754;23;20416;-68
2022/03/12 14:09:12;;;;;;;4.97;2.70;;;22.20;57.60;;;;;;6120528;23;20429;-68
2022/03/12 14:11:41;;;;;;;3.80;2.67;;;21.90;57.30;;;;;;6120843;23;20879;-68
2022/03/12 14:14:10;;;;;;;4.77;2.63;;;22.00;57.50;;;;;;6120908;23;20446;-68
2022/03/12 14:16:40;;;;;;;4.47;2.20;;;21.80;58.10;;;;;;6120547;23;20401;-69
2022/03/12 14:19:10;;;;;;;4.13;2.67;;;22.10;57.40;;;;;;6095891;23;20449;-68
2022/03/12 14:21:42;;;;;;;4.07;2.40;;;22.00;56.50;;;;;;6120499;23;20997;-69
2022/03/12 14:24:18;;;;;;;4.70;2.70;;;22.10;56.70;;;;;;6121537;23;20413;-68
2022/03/12 14:26:56;;;;;;;4.50;2.40;;;22.20;56.80;;;;;;6120961;23;20401;-68
2022/03/12 14:29:25;;;;;;;4.50;2.97;;;22.30;56.80;;;;;;6120773;23;20405;-69
2022/03/12 14:31:56;;;;;;;5.53;2.50;;;22.40;56.70;;;;;;6120918;23;20785;-68
2022/03/12 14:34:24;;;;;;;5.23;2.70;;;22.40;56.30;;;;;;6120808;23;20409;-68
2022/03/12 14:36:52;;;;;;;6.60;2.57;;;22.40;56.60;;;;;;6121004;23;20469;-68
2022/03/12 14:39:24;;;;;;;5.63;2.90;;;21.90;56.10;;;;;;6120826;23;20490;-69
2022/03/12 14:41:51;;;;;;;4.53;2.70;;;21.60;57.00;;;;;;6121212;23;20402;-68
2022/03/12 14:44:21;;;;;;;5.43;2.47;;;21.50;58.30;;;;;;6120663;23;20475;-69
2022/03/12 14:46:49;;;;;;;4.50;2.73;;;21.60;57.60;;;;;;6120194;23;21086;-68
2022/03/12 14:49:21;;;;;;;3.50;2.27;;;21.70;57.10;;;;;;6120541;23;20859;-68
2022/03/12 14:51:54;;;;;;;3.30;2.40;;;21.60;57.60;;;;;;6120189;23;20422;-68
2022/03/12 14:54:31;;;;;;;4.90;2.37;;;21.50;57.50;;;;;;6120241;23;20402;-68
2022/03/12 14:57:00;;;;;;;5.70;2.40;;;21.40;57.70;;;;;;6120609;23;20401;-69
2022/03/12 14:59:29;;;;;;;2.90;2.00;;;21.20;58.40;;;;;;6120184;23;20530;-68
2022/03/12 15:02:08;;;;;;;3.80;2.30;;;21.10;58.00;;;;;;6120429;23;20500;-68
2022/03/12 15:04:44;;;;;;;5.37;3.00;;;21.10;58.30;;;;;;6120199;23;20425;-68
2022/03/12 15:07:14;;;;;;;4.37;2.50;;;21.00;58.20;;;;;;6121965;23;20407;-68
2022/03/12 15:09:54;;;;;;;3.80;2.03;;;20.90;58.90;;;;;;6121558;23;20402;-68
2022/03/12 15:12:33;;;;;;;4.10;2.20;;;21.00;58.40;;;;;;6095567;23;20423;-69
2022/03/12 15:15:04;;;;;;;4.90;2.40;;;20.90;58.40;;;;;;6121401;23;20427;-69
2022/03/12 15:17:33;;;;;;;5.20;2.60;;;20.90;58.40;;;;;;6121753;23;20508;-68
2022/03/12 15:20:13;;;;;;;6.37;2.93;;;20.60;58.60;;;;;;6121397;23;20430;-69
2022/03/12 15:22:43;;;;;;;3.10;2.30;;;20.40;59.10;;;;;;6096191;23;20421;-68
2022/03/12 15:25:16;;;;;;;5.77;3.07;;;20.40;58.70;;;;;;6121693;23;20402;-69
2022/03/12 15:27:44;;;;;;;3.87;2.73;;;20.40;58.70;;;;;;6122012;23;20459;-68
2022/03/12 15:30:14;;;;;;;5.90;2.87;;;20.50;58.70;;;;;;6121309;23;20478;-69
2022/03/12 15:32:42;;;;;;;5.00;3.00;;;20.60;58.70;;;;;;6121664;23;20455;-69
2022/03/12 15:35:10;;;;;;;5.83;3.10;;;20.80;57.90;;;;;;6096644;23;20425;-69
2022/03/12 15:37:40;;;;;;;3.63;2.50;;;20.90;58.30;;;;;;6121725;23;20467;-68
2022/03/12 15:40:09;;;;;;;3.57;2.43;;;20.90;57.70;;;;;;6121427;23;20428;-69
2022/03/12 15:42:41;;;;;;;4.40;2.33;;;20.80;58.20;;;;;;6121642;23;20472;-69
2022/03/12 15:45:10;;;;;;;3.93;2.67;;;20.70;57.50;;;;;;6121101;23;21121;-69
2022/03/12 15:47:38;;;;;;;7.30;4.10;;;20.70;58.40;;;;;;6121218;23;21018;-69
2022/03/12 15:50:08;;;;;;;5.30;2.50;;;20.80;57.90;;;;;;6096049;23;20512;-69
2022/03/12 15:52:37;;;;;;;4.40;2.37;;;20.90;57.50;;;;;;6121495;23;20502;-68
2022/03/12 15:55:05;;;;;;;3.97;2.83;;;20.90;57.40;;;;;;6121228;23;20406;-69
2022/03/12 15:57:32;;;;;;;5.70;3.27;;;20.80;57.40;;;;;;6121620;23;20419;-69
2022/03/12 16:00:00;;;;;;;3.53;2.63;;;20.80;57.70;;;;;;6121259;23;20985;-68
2022/03/12 16:02:27;;;;;;;6.10;3.40;;;21.10;57.20;;;;;;6121276;23;20425;-68
2022/03/12 16:04:54;;;;;;;5.23;2.93;;;21.30;56.50;;;;;;6121319;23;20402;-69
2022/03/12 16:07:21;;;;;;;3.47;2.13;;;21.50;55.60;;;;;;6121602;23;20417;-68
2022/03/12 16:09:48;;;;;;;4.33;2.50;;;21.40;56.00;;;;;;6121305;23;20634;-68
2022/03/12 16:12:15;;;;;;;12.00;3.63;;;21.30;56.00;;;;;;6121615;23;20415;-68
2022/03/12 16:14:43;;;;;;;4.17;2.30;;;20.90;56.40;;;;;;6121291;23;20421;-68
2022/03/12 16:17:15;;;;;;;6.50;2.90;;;20.70;56.30;;;;;;6121581;23;20425;-69
2022/03/12 16:19:45;;;;;;;2.63;1.87;;;20.50;57.20;;;;;;6121533;23;20464;-68
2022/03/12 16:22:13;;;;;;;3.53;1.83;;;20.10;57.80;;;;;;6121750;23;20468;-69
2022/03/12 16:24:40;;;;;;;4.07;2.43;;;19.70;58.30;;;;;;6121795;23;20468;-69
2022/03/12 16:27:08;;;;;;;3.87;2.03;;;19.10;59.20;;;;;;6104653;23;20895;-69
2022/03/12 16:29:36;;;;;;;4.37;3.20;;;18.80;59.80;;;;;;6121326;23;20425;-69
2022/03/12 16:32:05;;;;;;;4.97;2.43;;;18.70;60.40;;;;;;6121343;23;20413;-69
2022/03/12 16:34:34;;;;;;;4.40;2.50;;;18.60;60.60;;;;;;6121287;23;20402;-68
2022/03/12 16:37:01;;;;;;;2.93;2.30;;;18.20;61.30;;;;;;6121209;23;20402;-69
2022/03/12 16:39:28;;;;;;;5.43;2.73;;;17.80;61.80;;;;;;6095174;23;20445;-68
2022/03/12 16:41:57;;;;;;;4.60;2.73;;;17.60;63.00;;;;;;6120972;23;20424;-68
2022/03/12 16:44:24;;;;;;;3.87;2.90;;;17.10;63.60;;;;;;6120992;23;20464;-69
2022/03/12 16:46:51;;;;;;;3.73;2.40;;;16.80;64.40;;;;;;6174841;23;20453;-68
2022/03/12 16:49:19;;;;;;;9.20;3.60;;;16.70;64.60;;;;;;6245426;22;20413;-69
2022/03/12 16:51:47;;;;;;;3.10;2.17;;;16.50;65.00;;;;;;6245493;22;20398;-69
2022/03/12 16:54:15;;;;;;;3.70;2.70;;;16.20;65.70;;;;;;6245425;22;20456;-69
2022/03/12 16:56:43;;;;;;;4.03;2.03;;;15.90;66.30;;;;;;6245549;22;20424;-68
2022/03/12 16:59:10;;;;;;;4.63;2.10;;;15.70;66.50;;;;;;6243509;23;20475;-68
2022/03/12 17:01:37;;;;;;;5.17;3.00;;;15.60;66.90;;;;;;6245282;22;20413;-68
2022/03/12 17:04:06;;;;;;;3.90;2.60;;;15.60;66.70;;;;;;6244015;23;20479;-68
2022/03/12 17:06:33;;;;;;;2.93;1.87;;;15.40;67.40;;;;;;6245320;22;20461;-68
2022/03/12 17:09:02;;;;;;;4.43;2.63;;;15.30;67.50;;;;;;6245256;22;20497;-68
2022/03/12 17:11:30;;;;;;;3.70;2.57;;;15.10;67.80;;;;;;6244895;22;20769;-70
2022/03/12 17:14:01;;;;;;;2.60;2.00;;;14.80;68.70;;;;;;6245354;22;20398;-70
2022/03/12 17:16:30;;;;;;;5.53;2.20;;;14.80;70.70;;;;;;6244835;22;20401;-70
2022/03/12 17:18:57;;;;;;;3.07;1.80;;;14.60;68.30;;;;;;6244503;22;20417;-71
2022/03/12 17:21:23;;;;;;;4.83;3.03;;;14.50;68.50;;;;;;6242849;22;20490;-71
2022/03/12 17:23:53;;;;;;;9.50;2.20;;;14.30;69.00;;;;;;6243574;22;20420;-71
2022/03/12 17:26:27;;;;;;;3.03;2.00;;;14.10;69.10;;;;;;6243733;22;20450;-71
2022/03/12 17:28:55;;;;;;;3.53;1.77;;;14.00;69.70;;;;;;6244903;22;20425;-71
2022/03/12 17:31:25;;;;;;;2.53;1.83;;;13.80;70.20;;;;;;6244616;22;20437;-71
2022/03/12 17:33:54;;;;;;;3.07;2.60;;;13.70;70.70;;;;;;6244023;22;20429;-71
2022/03/12 17:36:21;;;;;;;4.27;2.67;;;13.70;70.30;;;;;;6243927;22;20484;-71
2022/03/12 17:38:48;;;;;;;3.17;1.90;;;13.60;70.20;;;;;;6243261;22;20467;-72
2022/03/12 17:41:16;;;;;;;2.17;2.03;;;13.60;70.20;;;;;;6244078;22;20444;-72
2022/03/12 17:43:49;;;;;;;5.43;2.80;;;13.50;70.80;;;;;;6244897;22;20728;-71
2022/03/12 17:46:17;;;;;;;3.73;2.60;;;13.40;70.70;;;;;;6205624;22;20428;-71
2022/03/12 17:48:45;;;;;;;5.30;2.33;;;13.30;71.40;;;;;;6120218;23;20428;-72
2022/03/12 17:51:12;;;;;;;2.23;2.10;;;13.20;71.50;;;;;;6120630;23;20729;-72
2022/03/12 17:53:39;;;;;;;2.50;2.13;;;12.90;72.00;;;;;;6121066;23;20456;-71
2022/03/12 17:56:08;;;;;;;2.00;1.90;;;12.70;72.20;;;;;;6121013;23;20778;-72
2022/03/12 17:58:35;;;;;;;3.30;2.80;;;12.50;72.60;;;;;;6120628;23;20416;-72
2022/03/12 18:01:04;;;;;;;3.40;2.60;;;12.20;73.40;;;;;;6120792;23;20432;-72
2022/03/12 18:03:32;;;;;;;3.10;2.20;;;12.10;73.80;;;;;;6121083;23;20498;-72
2022/03/12 18:05:59;;;;;;;4.80;2.63;;;11.90;74.10;;;;;;6121318;23;20408;-72
2022/03/12 18:08:26;;;;;;;5.10;2.40;;;11.70;75.10;;;;;;6095581;23;20485;-73
2022/03/12 18:10:54;;;;;;;2.23;1.90;;;11.80;74.90;;;;;;6120642;23;20407;-73
2022/03/12 18:13:23;;;;;;;2.50;2.07;;;11.70;74.70;;;;;;6120386;23;20417;-72
2022/03/12 18:15:51;;;;;;;6.70;3.37;;;11.50;74.10;;;;;;6120757;23;20828;-72
2022/03/12 18:18:21;;;;;;;4.00;3.10;;;11.40;74.60;;;;;;6120853;23;20852;-73
2022/03/12 18:20:51;;;;;;;3.60;2.60;;;11.40;74.10;;;;;;6119844;23;20437;-73
2022/03/12 18:23:18;;;;;;;4.17;2.47;;;11.40;72.70;;;;;;6120405;23;20422;-73
2022/03/12 18:25:48;;;;;;;2.37;1.60;;;11.50;73.70;;;;;;6120077;23;20871;-73
2022/03/12 18:28:15;;;;;;;3.50;2.67;;;11.40;73.30;;;;;;6120820;23;20403;-73
2022/03/12 18:30:45;;;;;;;7.13;4.07;;;11.30;73.50;;;;;;6120200;23;20431;-73
2022/03/12 18:33:15;;;;;;;3.00;2.10;;;11.20;74.50;;;;;;6120424;23;20422;-73
2022/03/12 18:35:43;;;;;;;2.53;2.13;;;11.10;74.80;;;;;;6120246;23;20436;-72
2022/03/12 18:38:11;;;;;;;2.40;1.90;;;11.00;75.00;;;;;;6120658;23;20424;-73
2022/03/12 18:40:40;;;;;;;5.23;2.30;;;10.90;74.80;;;;;;6121217;23;20494;-73
2022/03/12 18:43:08;;;;;;;2.73;2.20;;;10.90;74.80;;;;;;6121721;23;20401;-73
2022/03/12 18:45:36;;;;;;;3.50;1.90;;;10.70;75.00;;;;;;6096381;23;20404;-73
2022/03/12 18:48:04;;;;;;;2.80;2.20;;;10.60;74.80;;;;;;6121768;23;20849;-73
2022/03/12 18:50:32;;;;;;;2.83;1.70;;;10.30;75.60;;;;;;6096312;23;20515;-73
2022/03/12 18:53:03;;;;;;;2.53;2.03;;;10.20;77.00;;;;;;6121948;23;20406;-73
2022/03/12 18:55:32;;;;;;;7.00;3.30;;;10.10;76.40;;;;;;6122146;23;20399;-73
2022/03/12 18:57:59;;;;;;;3.97;2.60;;;10.00;76.40;;;;;;6122419;23;20408;-73
2022/03/12 19:00:27;;;;;;;3.03;2.17;;;10.00;76.80;;;;;;6122364;23;20494;-72
2022/03/12 19:02:54;;;;;;;24.00;2.90;;;9.70;77.30;;;;;;6121290;23;20875;-72
2022/03/12 19:05:22;;;;;;;2.83;1.90;;;9.70;76.40;;;;;;6122181;23;20716;-73
2022/03/12 19:07:50;;;;;;;3.00;2.20;;;9.60;77.20;;;;;;6121379;23;20408;-72
2022/03/12 19:10:19;;;;;;;3.43;2.23;;;9.60;77.00;;;;;;6121791;23;20752;-73
2022/03/12 19:12:49;;;;;;;2.20;2.00;;;9.60;76.40;;;;;;6121378;23;20401;-72
2022/03/12 19:15:18;;;;;;;2.53;1.93;;;9.50;76.70;;;;;;6121415;23;20402;-72
2022/03/12 19:17:47;;;;;;;6.10;2.80;;;9.40;76.90;;;;;;6121314;23;20493;-72
2022/03/12 19:20:15;;;;;;;2.10;1.90;;;9.40;77.10;;;;;;6121569;23;20483;-73
2022/03/12 19:22:42;;;;;;;2.13;1.60;;;9.30;77.30;;;;;;6121386;23;20467;-73
2022/03/12 19:25:10;;;;;;;2.67;2.30;;;9.30;77.20;;;;;;6121682;23;20421;-73
2022/03/12 19:27:39;;;;;;;1.83;1.73;;;9.20;76.90;;;;;;6121739;23;20459;-73
2022/03/12 19:30:07;;;;;;;4.37;2.80;;;9.20;76.60;;;;;;6121640;23;20464;-72
2022/03/12 19:32:35;;;;;;;5.00;3.00;;;9.20;76.50;;;;;;6121816;23;20978;-72
2022/03/12 19:35:05;;;;;;;3.57;2.57;;;9.20;76.10;;;;;;6121642;23;20407;-73
2022/03/12 19:37:33;;;;;;;3.53;2.50;;;9.20;76.10;;;;;;6121448;23;20409;-73
2022/03/12 19:40:06;;;;;;;7.03;2.17;;;9.10;75.70;;;;;;6121453;23;20463;-72
2022/03/12 19:42:36;;;;;;;11.53;2.80;;;9.20;75.10;;;;;;6121502;23;20398;-73
2022/03/12 19:45:06;;;;;;;4.43;2.23;;;9.20;75.60;;;;;;6121618;23;20401;-73
2022/03/12 19:47:35;;;;;;;3.83;2.20;;;9.20;75.70;;;;;;6121328;23;20483;-72
2022/03/12 19:50:03;;;;;;;10.30;3.87;;;9.10;76.70;;;;;;6121545;23;20425;-72
2022/03/12 19:52:31;;;;;;;3.53;2.50;;;8.90;77.10;;;;;;6121900;23;20424;-73
2022/03/12 19:54:59;;;;;;;3.87;2.20;;;8.90;78.10;;;;;;6121984;23;20405;-72
2022/03/12 19:57:26;;;;;;;2.33;2.10;;;8.80;79.50;;;;;;6121198;23;20419;-73
2022/03/12 19:59:53;;;;;;;2.33;1.87;;;8.90;80.30;;;;;;6121566;23;20427;-73
2022/03/12 20:02:21;;;;;;;3.20;2.80;;;8.70;80.50;;;;;;6120618;23;20497;-72
2022/03/12 20:04:48;;;;;;;10.13;2.73;;;8.50;80.70;;;;;;6121269;23;20408;-73
2022/03/12 20:07:16;;;;;;;4.53;3.07;;;8.50;80.60;;;;;;6121318;23;20731;-72
2022/03/12 20:09:44;;;;;;;2.77;1.67;;;8.30;80.50;;;;;;6120914;23;20404;-72
2022/03/12 20:12:14;;;;;;;4.77;2.10;;;8.20;80.90;;;;;;6121351;23;20528;-72
2022/03/12 20:14:50;;;;;;;3.80;3.13;;;8.00;81.20;;;;;;6121366;23;20408;-72
2022/03/12 20:17:17;;;;;;;1.67;1.60;;;8.00;81.30;;;;;;6121335;23;20788;-72
2022/03/12 20:19:47;;;;;;;3.07;1.90;;;8.00;81.00;;;;;;6121322;23;20417;-72
2022/03/12 20:22:18;;;;;;;5.87;3.07;;;8.10;80.30;;;;;;6121521;23;20464;-72
2022/03/12 20:24:46;;;;;;;8.70;2.73;;;8.10;79.90;;;;;;6121494;23;20933;-73
2022/03/12 20:27:20;;;;;;;2.90;1.80;;;8.00;81.10;;;;;;6121623;23;20523;-72
2022/03/12 20:29:50;;;;;;;2.70;2.03;;;8.00;80.60;;;;;;6121325;23;20401;-72
2022/03/12 20:32:18;;;;;;;10.97;2.27;;;8.10;81.00;;;;;;6121560;23;20399;-72
2022/03/12 20:34:47;;;;;;;2.93;2.27;;;8.00;82.30;;;;;;6121126;23;20417;-72
2022/03/12 20:37:17;;;;;;;2.40;2.10;;;7.80;82.60;;;;;;6121297;23;20410;-72
2022/03/12 20:39:45;;;;;;;4.90;2.27;;;7.60;82.40;;;;;;6121288;23;20432;-72
2022/03/12 20:42:13;;;;;;;1.93;1.83;;;7.50;83.20;;;;;;6121583;23;20445;-72
2022/03/12 20:44:41;;;;;;;4.77;3.10;;;7.50;83.60;;;;;;6121606;23;20716;-72
2022/03/12 20:47:09;;;;;;;2.83;1.87;;;7.40;83.90;;;;;;6120988;23;20440;-72
2022/03/12 20:49:37;;;;;;;8.80;2.87;;;7.30;83.70;;;;;;6121102;23;20417;-72
2022/03/12 20:52:06;;;;;;;2.60;1.97;;;7.10;85.10;;;;;;6120966;23;20867;-72
2022/03/12 20:54:33;;;;;;;5.83;2.33;;;7.00;85.50;;;;;;6120657;23;20476;-72
2022/03/12 20:57:00;;;;;;;4.77;2.60;;;6.90;86.20;;;;;;6121130;23;20413;-72
2022/03/12 20:59:27;;;;;;;2.13;1.77;;;6.90;86.70;;;;;;6121084;23;20729;-72
2022/03/12 21:01:54;;;;;;;1.50;1.33;;;6.70;86.60;;;;;;6120373;23;20478;-73
2022/03/12 21:04:21;;;;;;;2.30;2.13;;;6.50;86.70;;;;;;6120604;23;20474;-72
2022/03/12 21:06:49;;;;;;;4.03;3.20;;;6.60;86.70;;;;;;6121267;23;20808;-72
2022/03/12 21:09:18;;;;;;;2.23;1.90;;;6.50;86.90;;;;;;6120849;23;20423;-72
2022/03/12 21:11:46;;;;;;;2.90;2.70;;;6.50;86.80;;;;;;6121425;23;20474;-72
2022/03/12 21:14:14;;;;;;;2.40;2.17;;;6.30;87.40;;;;;;6121048;23;20478;-73
2022/03/12 21:16:41;;;;;;;4.03;2.77;;;6.30;86.90;;;;;;6121427;23;20443;-72
2022/03/12 21:19:09;;;;;;;4.13;3.57;;;6.30;87.20;;;;;;6130968;23;20416;-72
2022/03/12 21:21:39;;;;;;;1.93;1.83;;;6.20;87.30;;;;;;6130793;23;20449;-72
2022/03/12 21:24:14;;;;;;;3.47;2.77;;;6.40;87.80;;;;;;6121374;23;20492;-72
2022/03/12 21:26:43;;;;;;;1.63;1.53;;;6.40;87.70;;;;;;6096127;23;20400;-72
2022/03/12 21:29:11;;;;;;;2.40;2.20;;;6.30;87.40;;;;;;6121810;23;20488;-72
2022/03/12 21:31:38;;;;;;;2.03;1.60;;;6.20;88.30;;;;;;6121385;23;20405;-72
2022/03/12 21:34:06;;;;;;;3.13;2.37;;;6.10;88.20;;;;;;6121564;23;20727;-72
2022/03/12 21:36:33;;;;;;;2.93;2.03;;;6.10;88.70;;;;;;6121663;23;20408;-72
2022/03/12 21:39:00;;;;;;;3.10;2.03;;;6.00;89.30;;;;;;6131143;23;20922;-72
2022/03/12 21:41:27;;;;;;;3.03;2.00;;;6.00;89.00;;;;;;6131121;23;20471;-72
2022/03/12 21:43:55;;;;;;;2.30;1.90;;;5.80;89.20;;;;;;6121584;23;20409;-73
2022/03/12 21:46:23;;;;;;;1.50;1.40;;;5.70;89.20;;;;;;6120934;23;20454;-72
2022/03/12 21:48:50;;;;;;;3.70;2.93;;;5.60;89.60;;;;;;6121870;23;20414;-72
2022/03/12 21:51:20;;;;;;;2.53;2.00;;;5.60;89.80;;;;;;6121644;23;20474;-72
2022/03/12 21:53:47;;;;;;;3.77;2.37;;;5.50;90.30;;;;;;6096582;23;20424;-72
2022/03/12 21:56:14;;;;;;;2.90;2.23;;;5.50;90.50;;;;;;6095704;23;20423;-72
2022/03/12 21:58:41;;;;;;;1.80;1.77;;;5.60;90.30;;;;;;6130813;23;20423;-72
2022/03/12 22:01:12;;;;;;;2.43;1.87;;;5.50;90.40;;;;;;6121067;23;20886;-72
2022/03/12 22:03:39;;;;;;;1.50;1.23;;;5.60;90.30;;;;;;6121346;23;20407;-72
2022/03/12 22:06:06;;;;;;;1.47;1.43;;;5.80;89.80;;;;;;6121177;23;20469;-72
2022/03/12 22:08:33;;;;;;;3.73;2.37;;;5.80;89.70;;;;;;6121457;23;20420;-72
2022/03/12 22:11:00;;;;;;;2.83;1.53;;;5.70;89.30;;;;;;6120698;23;20427;-72
2022/03/12 22:13:28;;;;;;;2.80;2.33;;;5.60;89.30;;;;;;6120639;23;20422;-72
2022/03/12 22:15:54;;;;;;;1.73;1.33;;;5.30;90.50;;;;;;6120859;23;20472;-72
2022/03/12 22:18:25;;;;;;;1.87;1.63;;;5.00;91.40;;;;;;6120314;23;20453;-72
2022/03/12 22:20:53;;;;;;;1.90;1.57;;;5.00;91.80;;;;;;6120863;23;20438;-72
2022/03/12 22:23:20;;;;;;;6.87;3.57;;;5.00;92.00;;;;;;6121226;23;20403;-73
2022/03/12 22:25:48;;;;;;;3.20;2.27;;;5.10;92.40;;;;;;6120844;23;20454;-73
2022/03/12 22:28:16;;;;;;;3.73;2.60;;;5.10;92.70;;;;;;6120633;23;20425;-73
2022/03/12 22:30:43;;;;;;;9.77;2.50;;;5.20;92.70;;;;;;6120594;23;20409;-73
2022/03/12 22:33:11;;;;;;;3.40;2.80;;;5.10;93.00;;;;;;6120258;23;20413;-73
2022/03/12 22:35:39;;;;;;;1.80;1.63;;;5.00;93.60;;;;;;6120460;23;20809;-73
2022/03/12 22:38:09;;;;;;;2.90;1.80;;;5.20;93.10;;;;;;6120829;23;20405;-73
2022/03/12 22:40:36;;;;;;;2.77;2.57;;;5.30;92.70;;;;;;6120547;23;20406;-73
2022/03/12 22:43:05;;;;;;;2.23;1.67;;;5.30;92.70;;;;;;6120676;23;20430;-73
2022/03/12 22:45:33;;;;;;;5.00;2.20;;;5.30;92.60;;;;;;6120359;23;20403;-72
2022/03/12 22:48:03;;;;;;;4.53;2.33;;;5.40;92.30;;;;;;6120186;23;20502;-72
2022/03/12 22:50:35;;;;;;;2.80;2.67;;;5.40;92.50;;;;;;6120195;23;20464;-72
2022/03/12 22:53:06;;;;;;;2.60;2.40;;;5.20;92.90;;;;;;6120222;23;20869;-72
2022/03/12 22:55:35;;;;;;;2.10;1.83;;;5.20;93.50;;;;;;6120452;23;20794;-72
2022/03/12 22:58:04;;;;;;;2.07;1.70;;;5.00;94.30;;;;;;6120144;23;20424;-72
2022/03/12 23:01:23;;;;;;;4.60;2.00;;;5.10;93.50;;;;;;6120047;23;20417;-72
2022/03/12 23:09:21;;;;;;;2.00;1.90;;;4.60;95.10;;;;;;6120648;23;20474;-72
2022/03/12 23:11:47;;;;;;;4.43;1.97;;;4.60;94.70;;;;;;6120544;23;20421;-71
2022/03/12 23:14:22;;;;;;;2.07;1.93;;;4.60;94.00;;;;;;6120542;23;20709;-72
2022/03/12 23:16:50;;;;;;;3.27;1.93;;;4.50;94.20;;;;;;6120348;23;20856;-72
2022/03/12 23:19:22;;;;;;;3.30;2.10;;;4.50;94.80;;;;;;6119930;23;20467;-71
2022/03/12 23:21:49;;;;;;;2.30;1.70;;;4.60;93.80;;;;;;6119456;23;20938;-72
2022/03/12 23:24:22;;;;;;;2.50;2.30;;;4.40;94.60;;;;;;6119752;23;20412;-72
2022/03/12 23:26:51;;;;;;;2.27;2.10;;;4.20;95.10;;;;;;6120384;23;20897;-72
2022/03/12 23:29:24;;;;;;;1.80;1.70;;;4.30;94.90;;;;;;6121515;23;20423;-72
2022/03/12 23:31:56;;;;;;;3.90;2.47;;;4.30;94.40;;;;;;6121413;23;20939;-72
2022/03/12 23:34:24;;;;;;;2.80;1.87;;;4.30;94.50;;;;;;6121751;23;20404;-72
2022/03/12 23:36:53;;;;;;;12.83;2.27;;;4.20;95.50;;;;;;6121588;23;20460;-72
2022/03/12 23:39:23;;;;;;;1.77;1.70;;;4.00;95.70;;;;;;6121575;23;20904;-72
2022/03/12 23:41:55;;;;;;;2.00;1.90;;;3.90;96.20;;;;;;6096204;23;20505;-72
2022/03/12 23:44:23;;;;;;;3.60;2.63;;;3.90;96.10;;;;;;6121783;23;20408;-72
2022/03/12 23:46:51;;;;;;;2.33;1.73;;;4.00;96.10;;;;;;6121361;23;20904;-71
2022/03/12 23:49:19;;;;;;;2.43;1.90;;;4.00;95.90;;;;;;6121776;23;20417;-71
2022/03/12 23:52:13;;;;;;;6.90;2.17;;;4.10;96.00;;;;;;6121590;23;20428;-72
2022/03/12 23:54:42;;;;;;;1.90;1.90;;;4.30;96.10;;;;;;6121332;23;20411;-71